sensor_id;sensor_type;location;lat;lon;timestamp;pressure;altitude;pressure_sealevel;temperature;humidity
79273;BME280;68718;-19.302;146.788;2023-04-15T00:00:59;100898.75;;;31.19;63.41
79273;BME280;68718;-19.302;146.788;2023-04-15T00:03:24;100899.98;;;30.74;65.77
79273;BME280;68718;-19.302;146.788;2023-04-15T00:05:48;100897.08;;;30.47;65.49
79273;BME280;68718;-19.302;146.788;2023-04-15T00:08:14;100897.13;;;31.62;62.41
79273;BME280;68718;-19.302;146.788;2023-04-15T00:10:39;100886.86;;;31.39;60.99
79273;BME280;68718;-19.302;146.788;2023-04-15T00:13:04;100890.83;;;31.12;62.55
79273;BME280;68718;-19.302;146.788;2023-04-15T00:15:29;100888.94;;;30.61;63.44
79273;BME280;68718;-19.302;146.788;2023-04-15T00:17:55;100889.21;;;32.12;59.62
79273;BME280;68718;-19.302;146.788;2023-04-15T00:20:21;100888.64;;;31.90;60.12
79273;BME280;68718;-19.302;146.788;2023-04-15T00:22:46;100884.99;;;31.39;61.96
79273;BME280;68718;-19.302;146.788;2023-04-15T00:25:11;100881.27;;;31.24;63.00
79273;BME280;68718;-19.302;146.788;2023-04-15T00:27:36;100878.26;;;31.63;61.31
79273;BME280;68718;-19.302;146.788;2023-04-15T00:30:02;100870.37;;;32.55;57.44
79273;BME280;68718;-19.302;146.788;2023-04-15T00:32:27;100871.26;;;32.25;57.76
79273;BME280;68718;-19.302;146.788;2023-04-15T00:34:52;100872.37;;;32.15;58.36
79273;BME280;68718;-19.302;146.788;2023-04-15T00:37:18;100872.09;;;31.96;58.90
79273;BME280;68718;-19.302;146.788;2023-04-15T00:39:43;100868.85;;;31.60;60.76
79273;BME280;68718;-19.302;146.788;2023-04-15T00:42:09;100863.88;;;32.12;59.07
79273;BME280;68718;-19.302;146.788;2023-04-15T00:44:34;100862.20;;;31.40;61.02
79273;BME280;68718;-19.302;146.788;2023-04-15T00:47:00;100859.81;;;31.67;60.31
79273;BME280;68718;-19.302;146.788;2023-04-15T00:49:25;100854.77;;;30.93;61.16
79273;BME280;68718;-19.302;146.788;2023-04-15T00:51:50;100845.49;;;32.30;56.80
79273;BME280;68718;-19.302;146.788;2023-04-15T00:54:15;100843.60;;;31.71;58.51
79273;BME280;68718;-19.302;146.788;2023-04-15T00:56:42;100837.33;;;31.75;58.66
79273;BME280;68718;-19.302;146.788;2023-04-15T00:59:07;100830.60;;;32.46;57.02
79273;BME280;68718;-19.302;146.788;2023-04-15T01:01:32;100826.60;;;32.48;56.64
79273;BME280;68718;-19.302;146.788;2023-04-15T01:03:57;100827.42;;;31.88;59.56
79273;BME280;68718;-19.302;146.788;2023-04-15T01:06:22;100822.90;;;32.46;58.38
79273;BME280;68718;-19.302;146.788;2023-04-15T01:08:48;100829.68;;;31.48;60.22
79273;BME280;68718;-19.302;146.788;2023-04-15T01:11:14;100825.25;;;32.42;57.96
79273;BME280;68718;-19.302;146.788;2023-04-15T01:13:39;100823.17;;;32.82;56.28
79273;BME280;68718;-19.302;146.788;2023-04-15T01:16:04;100820.49;;;32.21;57.26
79273;BME280;68718;-19.302;146.788;2023-04-15T01:18:30;100817.76;;;32.09;57.24
79273;BME280;68718;-19.302;146.788;2023-04-15T01:20:55;100814.04;;;32.63;56.32
79273;BME280;68718;-19.302;146.788;2023-04-15T01:23:20;100808.35;;;33.20;54.22
79273;BME280;68718;-19.302;146.788;2023-04-15T01:25:45;100804.31;;;32.79;55.20
79273;BME280;68718;-19.302;146.788;2023-04-15T01:28:11;100798.25;;;33.25;52.41
79273;BME280;68718;-19.302;146.788;2023-04-15T01:30:36;100794.05;;;34.21;50.81
79273;BME280;68718;-19.302;146.788;2023-04-15T01:33:01;100783.60;;;34.16;50.37
79273;BME280;68718;-19.302;146.788;2023-04-15T01:35:27;100778.68;;;33.59;53.25
79273;BME280;68718;-19.302;146.788;2023-04-15T01:37:52;100777.58;;;33.51;55.15
79273;BME280;68718;-19.302;146.788;2023-04-15T01:40:17;100770.76;;;32.88;55.14
79273;BME280;68718;-19.302;146.788;2023-04-15T01:42:43;100756.14;;;33.33;54.56
79273;BME280;68718;-19.302;146.788;2023-04-15T01:45:09;100749.84;;;33.50;52.84
79273;BME280;68718;-19.302;146.788;2023-04-15T01:47:34;100746.62;;;33.21;55.39
79273;BME280;68718;-19.302;146.788;2023-04-15T01:49:59;100739.17;;;33.11;55.71
79273;BME280;68718;-19.302;146.788;2023-04-15T01:52:24;100737.34;;;33.94;53.39
79273;BME280;68718;-19.302;146.788;2023-04-15T01:54:50;100732.60;;;33.50;53.38
79273;BME280;68718;-19.302;146.788;2023-04-15T01:57:15;100729.20;;;33.07;53.62
79273;BME280;68718;-19.302;146.788;2023-04-15T01:59:41;100727.01;;;33.16;54.05
79273;BME280;68718;-19.302;146.788;2023-04-15T02:02:06;100723.27;;;33.46;53.08
79273;BME280;68718;-19.302;146.788;2023-04-15T02:04:31;100716.79;;;34.25;50.76
79273;BME280;68718;-19.302;146.788;2023-04-15T02:06:57;100712.81;;;34.58;49.90
79273;BME280;68718;-19.302;146.788;2023-04-15T02:09:22;100702.65;;;33.98;50.49
79273;BME280;68718;-19.302;146.788;2023-04-15T02:11:48;100691.78;;;34.22;49.10
79273;BME280;68718;-19.302;146.788;2023-04-15T02:14:13;100689.22;;;33.79;50.51
79273;BME280;68718;-19.302;146.788;2023-04-15T02:16:38;100687.16;;;34.00;49.45
79273;BME280;68718;-19.302;146.788;2023-04-15T02:19:04;100681.61;;;33.68;50.61
79273;BME280;68718;-19.302;146.788;2023-04-15T02:21:29;100678.78;;;33.02;51.57
79273;BME280;68718;-19.302;146.788;2023-04-15T02:23:55;100672.98;;;33.84;49.71
79273;BME280;68718;-19.302;146.788;2023-04-15T02:26:20;100665.51;;;33.70;49.40
79273;BME280;68718;-19.302;146.788;2023-04-15T02:28:45;100664.28;;;34.23;49.11
79273;BME280;68718;-19.302;146.788;2023-04-15T02:31:11;100659.97;;;34.29;48.04
79273;BME280;68718;-19.302;146.788;2023-04-15T02:33:36;100658.23;;;34.34;47.82
79273;BME280;68718;-19.302;146.788;2023-04-15T02:36:02;100653.87;;;35.05;46.20
79273;BME280;68718;-19.302;146.788;2023-04-15T02:38:27;100645.99;;;35.33;43.73
79273;BME280;68718;-19.302;146.788;2023-04-15T02:40:52;100644.17;;;34.58;45.43
79273;BME280;68718;-19.302;146.788;2023-04-15T02:43:17;100642.17;;;34.41;44.54
79273;BME280;68718;-19.302;146.788;2023-04-15T02:45:43;100634.13;;;35.22;43.78
79273;BME280;68718;-19.302;146.788;2023-04-15T02:48:09;100635.38;;;35.64;43.58
79273;BME280;68718;-19.302;146.788;2023-04-15T02:50:34;100630.88;;;35.59;42.59
79273;BME280;68718;-19.302;146.788;2023-04-15T02:52:59;100626.96;;;34.75;44.60
79273;BME280;68718;-19.302;146.788;2023-04-15T02:55:24;100623.61;;;34.71;46.79
79273;BME280;68718;-19.302;146.788;2023-04-15T02:57:50;100617.52;;;34.06;48.71
79273;BME280;68718;-19.302;146.788;2023-04-15T03:00:16;100612.72;;;34.59;46.49
79273;BME280;68718;-19.302;146.788;2023-04-15T03:02:41;100615.90;;;34.64;47.35
79273;BME280;68718;-19.302;146.788;2023-04-15T03:05:09;100612.20;;;34.49;47.53
79273;BME280;68718;-19.302;146.788;2023-04-15T03:07:31;100614.10;;;34.04;48.32
79273;BME280;68718;-19.302;146.788;2023-04-15T03:09:56;100606.51;;;34.53;46.55
79273;BME280;68718;-19.302;146.788;2023-04-15T03:12:23;100604.30;;;34.40;46.79
79273;BME280;68718;-19.302;146.788;2023-04-15T03:14:47;100602.25;;;34.73;46.88
79273;BME280;68718;-19.302;146.788;2023-04-15T03:17:13;100599.12;;;34.36;48.57
79273;BME280;68718;-19.302;146.788;2023-04-15T03:19:38;100589.45;;;33.77;49.21
79273;BME280;68718;-19.302;146.788;2023-04-15T03:22:03;100579.45;;;35.23;47.25
79273;BME280;68718;-19.302;146.788;2023-04-15T03:24:29;100576.77;;;35.14;47.96
79273;BME280;68718;-19.302;146.788;2023-04-15T03:26:54;100571.01;;;35.23;47.49
79273;BME280;68718;-19.302;146.788;2023-04-15T03:29:19;100567.30;;;34.46;47.90
79273;BME280;68718;-19.302;146.788;2023-04-15T03:31:45;100566.01;;;34.71;48.40
79273;BME280;68718;-19.302;146.788;2023-04-15T03:34:10;100563.55;;;35.60;46.99
79273;BME280;68718;-19.302;146.788;2023-04-15T03:36:35;100562.86;;;35.00;49.06
79273;BME280;68718;-19.302;146.788;2023-04-15T03:39:00;100567.02;;;34.79;48.27
79273;BME280;68718;-19.302;146.788;2023-04-15T03:41:26;100564.03;;;35.46;47.63
79273;BME280;68718;-19.302;146.788;2023-04-15T03:43:51;100562.60;;;35.14;48.27
79273;BME280;68718;-19.302;146.788;2023-04-15T03:46:16;100561.43;;;34.13;50.14
79273;BME280;68718;-19.302;146.788;2023-04-15T03:48:42;100556.16;;;34.84;50.23
79273;BME280;68718;-19.302;146.788;2023-04-15T03:51:07;100549.91;;;34.05;52.35
79273;BME280;68718;-19.302;146.788;2023-04-15T03:53:32;100548.67;;;34.06;51.51
79273;BME280;68718;-19.302;146.788;2023-04-15T03:55:58;100549.09;;;34.86;50.78
79273;BME280;68718;-19.302;146.788;2023-04-15T03:58:23;100550.28;;;35.02;49.44
79273;BME280;68718;-19.302;146.788;2023-04-15T04:00:49;100546.89;;;35.19;47.60
79273;BME280;68718;-19.302;146.788;2023-04-15T04:03:14;100545.99;;;34.73;50.34
79273;BME280;68718;-19.302;146.788;2023-04-15T04:05:39;100542.54;;;33.98;51.17
79273;BME280;68718;-19.302;146.788;2023-04-15T04:08:05;100539.27;;;33.68;51.16
79273;BME280;68718;-19.302;146.788;2023-04-15T04:10:30;100539.56;;;33.97;52.34
79273;BME280;68718;-19.302;146.788;2023-04-15T04:12:55;100544.39;;;33.95;53.18
79273;BME280;68718;-19.302;146.788;2023-04-15T04:15:21;100545.54;;;33.60;53.94
79273;BME280;68718;-19.302;146.788;2023-04-15T04:17:46;100538.52;;;34.32;52.33
79273;BME280;68718;-19.302;146.788;2023-04-15T04:20:11;100534.77;;;34.92;50.31
79273;BME280;68718;-19.302;146.788;2023-04-15T04:22:39;100540.09;;;34.03;52.65
79273;BME280;68718;-19.302;146.788;2023-04-15T04:25:03;100539.37;;;34.48;51.70
79273;BME280;68718;-19.302;146.788;2023-04-15T04:27:28;100543.27;;;34.42;51.30
79273;BME280;68718;-19.302;146.788;2023-04-15T04:29:53;100538.52;;;34.18;51.69
79273;BME280;68718;-19.302;146.788;2023-04-15T04:32:19;100535.00;;;33.63;52.47
79273;BME280;68718;-19.302;146.788;2023-04-15T04:34:44;100532.83;;;34.38;51.19
79273;BME280;68718;-19.302;146.788;2023-04-15T04:37:10;100537.54;;;34.33;51.89
79273;BME280;68718;-19.302;146.788;2023-04-15T04:39:35;100535.12;;;34.82;50.03
79273;BME280;68718;-19.302;146.788;2023-04-15T04:42:00;100536.73;;;33.71;53.79
79273;BME280;68718;-19.302;146.788;2023-04-15T04:44:25;100530.94;;;33.96;53.03
79273;BME280;68718;-19.302;146.788;2023-04-15T04:46:52;100534.40;;;35.00;50.56
79273;BME280;68718;-19.302;146.788;2023-04-15T04:49:16;100527.42;;;34.32;50.34
79273;BME280;68718;-19.302;146.788;2023-04-15T04:51:41;100525.66;;;35.12;49.13
79273;BME280;68718;-19.302;146.788;2023-04-15T04:54:07;100529.90;;;34.34;51.13
79273;BME280;68718;-19.302;146.788;2023-04-15T04:56:32;100530.23;;;34.64;50.19
79273;BME280;68718;-19.302;146.788;2023-04-15T04:58:58;100528.16;;;34.16;51.88
79273;BME280;68718;-19.302;146.788;2023-04-15T05:01:23;100527.85;;;35.37;50.03
79273;BME280;68718;-19.302;146.788;2023-04-15T05:03:49;100532.36;;;33.13;55.53
79273;BME280;68718;-19.302;146.788;2023-04-15T05:06:13;100527.08;;;34.11;53.60
79273;BME280;68718;-19.302;146.788;2023-04-15T05:08:39;100533.64;;;34.65;51.92
79273;BME280;68718;-19.302;146.788;2023-04-15T05:11:05;100535.94;;;34.75;51.93
79273;BME280;68718;-19.302;146.788;2023-04-15T05:13:30;100540.51;;;33.29;56.18
79273;BME280;68718;-19.302;146.788;2023-04-15T05:15:55;100535.26;;;34.54;53.41
79273;BME280;68718;-19.302;146.788;2023-04-15T05:18:21;100529.64;;;34.54;53.15
79273;BME280;68718;-19.302;146.788;2023-04-15T05:20:46;100530.59;;;34.19;53.33
79273;BME280;68718;-19.302;146.788;2023-04-15T05:23:11;100527.17;;;34.62;52.75
79273;BME280;68718;-19.302;146.788;2023-04-15T05:25:36;100530.58;;;33.81;54.33
79273;BME280;68718;-19.302;146.788;2023-04-15T05:28:01;100533.44;;;33.53;56.08
79273;BME280;68718;-19.302;146.788;2023-04-15T05:30:26;100533.41;;;33.78;55.60
79273;BME280;68718;-19.302;146.788;2023-04-15T05:32:52;100536.41;;;33.43;55.22
79273;BME280;68718;-19.302;146.788;2023-04-15T05:35:18;100536.53;;;34.09;54.16
79273;BME280;68718;-19.302;146.788;2023-04-15T05:37:42;100539.93;;;33.79;55.02
79273;BME280;68718;-19.302;146.788;2023-04-15T05:40:08;100534.59;;;33.30;55.19
79273;BME280;68718;-19.302;146.788;2023-04-15T05:42:33;100532.24;;;32.90;57.90
79273;BME280;68718;-19.302;146.788;2023-04-15T05:44:59;100536.08;;;33.07;58.59
79273;BME280;68718;-19.302;146.788;2023-04-15T05:47:24;100538.45;;;32.61;60.42
79273;BME280;68718;-19.302;146.788;2023-04-15T05:49:49;100540.54;;;33.42;56.78
79273;BME280;68718;-19.302;146.788;2023-04-15T05:52:15;100543.16;;;33.00;58.05
79273;BME280;68718;-19.302;146.788;2023-04-15T05:54:40;100549.88;;;34.23;55.49
79273;BME280;68718;-19.302;146.788;2023-04-15T05:57:06;100549.33;;;34.36;54.08
79273;BME280;68718;-19.302;146.788;2023-04-15T05:59:31;100549.07;;;34.18;54.60
79273;BME280;68718;-19.302;146.788;2023-04-15T06:01:56;100552.43;;;33.00;60.21
79273;BME280;68718;-19.302;146.788;2023-04-15T06:04:21;100551.03;;;33.19;58.34
79273;BME280;68718;-19.302;146.788;2023-04-15T06:06:47;100549.10;;;33.57;57.70
79273;BME280;68718;-19.302;146.788;2023-04-15T06:09:12;100548.64;;;33.01;58.71
79273;BME280;68718;-19.302;146.788;2023-04-15T06:11:38;100556.81;;;33.40;57.83
79273;BME280;68718;-19.302;146.788;2023-04-15T06:14:03;100561.01;;;33.50;57.55
79273;BME280;68718;-19.302;146.788;2023-04-15T06:16:28;100561.48;;;33.37;57.27
79273;BME280;68718;-19.302;146.788;2023-04-15T06:18:54;100563.04;;;34.02;55.25
79273;BME280;68718;-19.302;146.788;2023-04-15T06:21:19;100564.75;;;33.39;57.30
79273;BME280;68718;-19.302;146.788;2023-04-15T06:23:45;100570.16;;;33.80;56.41
79273;BME280;68718;-19.302;146.788;2023-04-15T06:26:10;100566.17;;;32.73;59.19
79273;BME280;68718;-19.302;146.788;2023-04-15T06:28:36;100568.91;;;32.55;59.66
79273;BME280;68718;-19.302;146.788;2023-04-15T06:31:00;100573.56;;;33.20;57.93
79273;BME280;68718;-19.302;146.788;2023-04-15T06:33:26;100579.29;;;32.59;59.77
79273;BME280;68718;-19.302;146.788;2023-04-15T06:35:51;100574.39;;;32.71;59.31
79273;BME280;68718;-19.302;146.788;2023-04-15T06:38:16;100576.81;;;32.80;58.94
79273;BME280;68718;-19.302;146.788;2023-04-15T06:40:42;100574.03;;;32.43;59.11
79273;BME280;68718;-19.302;146.788;2023-04-15T06:43:08;100580.18;;;32.43;59.00
79273;BME280;68718;-19.302;146.788;2023-04-15T06:45:33;100586.34;;;32.15;59.82
79273;BME280;68718;-19.302;146.788;2023-04-15T06:47:58;100595.52;;;30.99;65.25
79273;BME280;68718;-19.302;146.788;2023-04-15T06:50:23;100594.59;;;32.06;61.21
79273;BME280;68718;-19.302;146.788;2023-04-15T06:52:49;100597.18;;;31.95;61.62
79273;BME280;68718;-19.302;146.788;2023-04-15T06:55:14;100600.62;;;30.84;65.35
79273;BME280;68718;-19.302;146.788;2023-04-15T06:57:40;100598.16;;;31.68;62.84
79273;BME280;68718;-19.302;146.788;2023-04-15T07:00:06;100601.17;;;32.12;61.65
79273;BME280;68718;-19.302;146.788;2023-04-15T07:02:30;100597.38;;;31.64;61.11
79273;BME280;68718;-19.302;146.788;2023-04-15T07:04:55;100600.33;;;32.12;60.39
79273;BME280;68718;-19.302;146.788;2023-04-15T07:07:21;100599.46;;;32.50;57.94
79273;BME280;68718;-19.302;146.788;2023-04-15T07:09:46;100605.15;;;31.96;60.13
79273;BME280;68718;-19.302;146.788;2023-04-15T07:12:12;100609.50;;;31.48;61.51
79273;BME280;68718;-19.302;146.788;2023-04-15T07:14:37;100611.53;;;31.98;60.54
79273;BME280;68718;-19.302;146.788;2023-04-15T07:17:02;100619.28;;;32.09;60.34
79273;BME280;68718;-19.302;146.788;2023-04-15T07:19:27;100621.47;;;32.23;59.82
79273;BME280;68718;-19.302;146.788;2023-04-15T07:21:53;100625.86;;;32.01;61.23
79273;BME280;68718;-19.302;146.788;2023-04-15T07:24:18;100624.70;;;32.12;60.29
79273;BME280;68718;-19.302;146.788;2023-04-15T07:26:43;100624.62;;;32.53;58.90
79273;BME280;68718;-19.302;146.788;2023-04-15T07:29:08;100630.78;;;32.72;58.65
79273;BME280;68718;-19.302;146.788;2023-04-15T07:31:34;100632.96;;;31.78;60.70
79273;BME280;68718;-19.302;146.788;2023-04-15T07:33:59;100637.44;;;30.55;63.55
79273;BME280;68718;-19.302;146.788;2023-04-15T07:36:24;100643.26;;;31.18;62.36
79273;BME280;68718;-19.302;146.788;2023-04-15T07:38:50;100646.17;;;31.68;61.01
79273;BME280;68718;-19.302;146.788;2023-04-15T07:41:15;100645.72;;;31.80;59.95
79273;BME280;68718;-19.302;146.788;2023-04-15T07:43:40;100655.75;;;32.21;59.02
79273;BME280;68718;-19.302;146.788;2023-04-15T07:46:06;100659.54;;;32.14;59.00
79273;BME280;68718;-19.302;146.788;2023-04-15T07:48:31;100663.35;;;32.40;59.13
79273;BME280;68718;-19.302;146.788;2023-04-15T07:50:57;100665.50;;;32.06;58.44
79273;BME280;68718;-19.302;146.788;2023-04-15T07:53:22;100666.22;;;32.18;58.48
79273;BME280;68718;-19.302;146.788;2023-04-15T07:55:48;100668.53;;;32.04;59.83
79273;BME280;68718;-19.302;146.788;2023-04-15T07:58:13;100673.01;;;31.87;60.49
79273;BME280;68718;-19.302;146.788;2023-04-15T08:00:38;100672.14;;;31.59;61.48
79273;BME280;68718;-19.302;146.788;2023-04-15T08:03:06;100673.41;;;31.09;63.34
79273;BME280;68718;-19.302;146.788;2023-04-15T08:05:31;100682.92;;;31.02;63.52
79273;BME280;68718;-19.302;146.788;2023-04-15T08:07:55;100690.47;;;31.12;62.33
79273;BME280;68718;-19.302;146.788;2023-04-15T08:10:22;100691.16;;;30.96;62.31
79273;BME280;68718;-19.302;146.788;2023-04-15T08:12:46;100690.85;;;31.27;62.57
79273;BME280;68718;-19.302;146.788;2023-04-15T08:15:12;100692.79;;;30.20;66.11
79273;BME280;68718;-19.302;146.788;2023-04-15T08:17:39;100692.53;;;31.27;62.96
79273;BME280;68718;-19.302;146.788;2023-04-15T08:20:02;100697.24;;;30.76;63.23
79273;BME280;68718;-19.302;146.788;2023-04-15T08:22:29;100704.96;;;31.08;62.41
79273;BME280;68718;-19.302;146.788;2023-04-15T08:24:52;100711.20;;;31.56;60.90
79273;BME280;68718;-19.302;146.788;2023-04-15T08:27:18;100714.30;;;30.90;63.70
79273;BME280;68718;-19.302;146.788;2023-04-15T08:29:44;100717.37;;;30.37;64.56
79273;BME280;68718;-19.302;146.788;2023-04-15T08:32:08;100716.75;;;31.58;61.69
79273;BME280;68718;-19.302;146.788;2023-04-15T08:34:34;100718.23;;;31.29;61.29
79273;BME280;68718;-19.302;146.788;2023-04-15T08:37:00;100720.28;;;31.08;61.53
79273;BME280;68718;-19.302;146.788;2023-04-15T08:39:25;100723.07;;;30.95;63.26
79273;BME280;68718;-19.302;146.788;2023-04-15T08:41:55;100724.62;;;30.90;63.35
79273;BME280;68718;-19.302;146.788;2023-04-15T08:44:16;100725.39;;;31.08;61.82
79273;BME280;68718;-19.302;146.788;2023-04-15T08:46:43;100724.59;;;31.32;61.84
79273;BME280;68718;-19.302;146.788;2023-04-15T08:49:10;100726.93;;;31.13;61.91
79273;BME280;68718;-19.302;146.788;2023-04-15T08:51:43;100724.95;;;30.81;62.79
79273;BME280;68718;-19.302;146.788;2023-04-15T08:53:58;100728.96;;;30.59;63.51
79273;BME280;68718;-19.302;146.788;2023-04-15T08:56:25;100731.18;;;30.79;63.28
79273;BME280;68718;-19.302;146.788;2023-04-15T08:58:50;100735.15;;;30.78;64.79
79273;BME280;68718;-19.302;146.788;2023-04-15T09:01:16;100739.33;;;31.41;62.19
79273;BME280;68718;-19.302;146.788;2023-04-15T09:03:41;100747.29;;;30.84;64.06
79273;BME280;68718;-19.302;146.788;2023-04-15T09:06:07;100752.74;;;31.40;63.01
79273;BME280;68718;-19.302;146.788;2023-04-15T09:08:31;100750.51;;;31.48;61.31
79273;BME280;68718;-19.302;146.788;2023-04-15T09:10:57;100758.94;;;30.61;63.87
79273;BME280;68718;-19.302;146.788;2023-04-15T09:13:23;100757.35;;;30.97;63.19
79273;BME280;68718;-19.302;146.788;2023-04-15T09:15:50;100755.26;;;31.11;63.85
79273;BME280;68718;-19.302;146.788;2023-04-15T09:20:40;100751.03;;;30.78;64.56
79273;BME280;68718;-19.302;146.788;2023-04-15T09:23:12;100751.66;;;31.06;63.90
79273;BME280;68718;-19.302;146.788;2023-04-15T09:25:34;100754.73;;;30.89;63.26
79273;BME280;68718;-19.302;146.788;2023-04-15T09:27:56;100754.64;;;31.13;63.08
79273;BME280;68718;-19.302;146.788;2023-04-15T09:30:20;100757.99;;;31.11;62.51
79273;BME280;68718;-19.302;146.788;2023-04-15T09:32:50;100757.70;;;30.76;64.07
79273;BME280;68718;-19.302;146.788;2023-04-15T09:35:12;100765.24;;;29.52;67.01
79273;BME280;68718;-19.302;146.788;2023-04-15T09:37:37;100765.83;;;30.65;64.48
79273;BME280;68718;-19.302;146.788;2023-04-15T09:40:01;100768.53;;;30.92;64.13
79273;BME280;68718;-19.302;146.788;2023-04-15T09:42:27;100770.91;;;30.85;64.41
79273;BME280;68718;-19.302;146.788;2023-04-15T09:44:53;100775.48;;;30.96;62.66
79273;BME280;68718;-19.302;146.788;2023-04-15T09:52:08;100781.80;;;31.08;62.54
79273;BME280;68718;-19.302;146.788;2023-04-15T09:54:37;100786.72;;;31.22;62.32
79273;BME280;68718;-19.302;146.788;2023-04-15T09:57:06;100790.36;;;31.57;62.07
79273;BME280;68718;-19.302;146.788;2023-04-15T09:59:24;100799.24;;;30.65;65.82
79273;BME280;68718;-19.302;146.788;2023-04-15T10:01:50;100803.05;;;30.86;64.23
79273;BME280;68718;-19.302;146.788;2023-04-15T10:04:15;100804.95;;;31.18;64.07
79273;BME280;68718;-19.302;146.788;2023-04-15T10:06:41;100809.07;;;30.68;64.59
79273;BME280;68718;-19.302;146.788;2023-04-15T10:09:06;100809.71;;;31.30;64.12
79273;BME280;68718;-19.302;146.788;2023-04-15T10:11:31;100813.95;;;30.87;63.85
79273;BME280;68718;-19.302;146.788;2023-04-15T10:13:59;100815.54;;;31.03;63.57
79273;BME280;68718;-19.302;146.788;2023-04-15T10:16:22;100819.51;;;31.48;63.67
79273;BME280;68718;-19.302;146.788;2023-04-15T10:18:50;100824.41;;;30.73;65.62
79273;BME280;68718;-19.302;146.788;2023-04-15T10:21:16;100826.71;;;30.90;64.62
79273;BME280;68718;-19.302;146.788;2023-04-15T10:23:39;100828.55;;;30.73;64.29
79273;BME280;68718;-19.302;146.788;2023-04-15T10:26:03;100833.28;;;31.08;64.84
79273;BME280;68718;-19.302;146.788;2023-04-15T10:28:28;100834.12;;;30.43;65.79
79273;BME280;68718;-19.302;146.788;2023-04-15T10:30:53;100833.26;;;30.71;65.42
79273;BME280;68718;-19.302;146.788;2023-04-15T10:33:21;100835.19;;;30.52;66.06
79273;BME280;68718;-19.302;146.788;2023-04-15T10:35:44;100835.91;;;30.75;64.90
79273;BME280;68718;-19.302;146.788;2023-04-15T10:40:35;100838.21;;;31.06;63.98
79273;BME280;68718;-19.302;146.788;2023-04-15T10:43:03;100838.79;;;31.25;63.89
79273;BME280;68718;-19.302;146.788;2023-04-15T10:45:26;100841.61;;;31.14;64.51
79273;BME280;68718;-19.302;146.788;2023-04-15T10:47:54;100842.18;;;30.86;64.69
79273;BME280;68718;-19.302;146.788;2023-04-15T10:50:16;100846.04;;;31.16;63.71
79273;BME280;68718;-19.302;146.788;2023-04-15T10:52:41;100850.77;;;30.21;66.44
79273;BME280;68718;-19.302;146.788;2023-04-15T10:55:12;100855.66;;;31.03;64.77
79273;BME280;68718;-19.302;146.788;2023-04-15T10:57:38;100859.03;;;30.72;66.32
79273;BME280;68718;-19.302;146.788;2023-04-15T11:00:18;100865.01;;;30.49;67.49
79273;BME280;68718;-19.302;146.788;2023-04-15T11:02:39;100867.25;;;30.89;65.92
79273;BME280;68718;-19.302;146.788;2023-04-15T11:04:55;100869.90;;;30.49;65.70
79273;BME280;68718;-19.302;146.788;2023-04-15T11:07:16;100870.99;;;30.67;65.44
79273;BME280;68718;-19.302;146.788;2023-04-15T11:09:40;100868.37;;;30.32;66.23
79273;BME280;68718;-19.302;146.788;2023-04-15T11:12:08;100870.84;;;30.60;66.90
79273;BME280;68718;-19.302;146.788;2023-04-15T11:16:59;100874.47;;;30.92;66.31
79273;BME280;68718;-19.302;146.788;2023-04-15T11:19:24;100876.95;;;30.66;67.13
79273;BME280;68718;-19.302;146.788;2023-04-15T11:21:46;100881.10;;;30.88;65.77
79273;BME280;68718;-19.302;146.788;2023-04-15T11:26:41;100887.33;;;30.81;65.84
79273;BME280;68718;-19.302;146.788;2023-04-15T11:29:03;100890.69;;;31.24;65.22
79273;BME280;68718;-19.302;146.788;2023-04-15T11:31:29;100891.88;;;31.12;64.82
79273;BME280;68718;-19.302;146.788;2023-04-15T11:33:57;100892.01;;;31.00;65.62
79273;BME280;68718;-19.302;146.788;2023-04-15T11:36:23;100896.04;;;30.88;66.77
79273;BME280;68718;-19.302;146.788;2023-04-15T11:38:46;100896.57;;;30.40;66.87
79273;BME280;68718;-19.302;146.788;2023-04-15T11:41:10;100893.66;;;31.08;66.02
79273;BME280;68718;-19.302;146.788;2023-04-15T11:43:38;100893.52;;;30.92;65.08
79273;BME280;68718;-19.302;146.788;2023-04-15T11:46:01;100889.50;;;30.72;66.20
79273;BME280;68718;-19.302;146.788;2023-04-15T11:48:26;100890.76;;;31.10;65.91
79273;BME280;68718;-19.302;146.788;2023-04-15T11:50:57;100891.49;;;30.70;65.65
79273;BME280;68718;-19.302;146.788;2023-04-15T11:53:24;100889.83;;;30.53;65.56
79273;BME280;68718;-19.302;146.788;2023-04-15T11:55:46;100888.93;;;31.47;63.27
79273;BME280;68718;-19.302;146.788;2023-04-15T11:58:12;100884.18;;;31.16;65.09
79273;BME280;68718;-19.302;146.788;2023-04-15T12:00:34;100883.65;;;29.43;72.28
79273;BME280;68718;-19.302;146.788;2023-04-15T12:05:27;100882.14;;;30.04;69.31
79273;BME280;68718;-19.302;146.788;2023-04-15T12:07:59;100882.73;;;29.42;71.32
79273;BME280;68718;-19.302;146.788;2023-04-15T12:10:15;100884.61;;;29.98;68.75
79273;BME280;68718;-19.302;146.788;2023-04-15T12:12:41;100883.11;;;29.74;70.23
79273;BME280;68718;-19.302;146.788;2023-04-15T12:15:10;100887.07;;;29.13;73.24
79273;BME280;68718;-19.302;146.788;2023-04-15T12:17:36;100889.20;;;29.24;71.63
79273;BME280;68718;-19.302;146.788;2023-04-15T12:19:57;100890.80;;;30.36;68.99
79273;BME280;68718;-19.302;146.788;2023-04-15T12:22:27;100885.72;;;29.70;69.63
79273;BME280;68718;-19.302;146.788;2023-04-15T12:24:52;100888.79;;;29.82;69.44
79273;BME280;68718;-19.302;146.788;2023-04-15T12:27:14;100888.71;;;30.34;67.86